createdAt,value
2017-12-24T00:02:22.774Z,9.83
2017-12-24T00:04:51.872Z,9.89
2017-12-24T00:07:20.993Z,9.89
2017-12-24T00:09:49.347Z,9.92
2017-12-24T00:12:18.437Z,9.93
2017-12-24T00:14:47.543Z,9.94
2017-12-24T00:17:15.913Z,10.00
2017-12-24T00:19:45.022Z,10.02
2017-12-24T00:22:13.367Z,10.07
2017-12-24T00:24:41.740Z,10.02
2017-12-24T00:27:10.064Z,10.06
2017-12-24T00:29:38.406Z,10.09
2017-12-24T00:32:06.758Z,10.09
2017-12-24T00:34:35.118Z,10.09
2017-12-24T00:37:03.461Z,10.03
2017-12-24T00:39:31.844Z,10.09
2017-12-24T00:42:00.216Z,10.10
2017-12-24T00:44:28.587Z,10.13
2017-12-24T00:46:57.710Z,10.18
2017-12-24T00:49:26.065Z,10.16
2017-12-24T00:51:55.159Z,10.09
2017-12-24T00:54:24.297Z,10.11
2017-12-24T00:56:52.616Z,10.14
2017-12-24T00:59:21.741Z,10.14
2017-12-24T01:01:50.100Z,10.13
2017-12-24T01:04:19.201Z,10.10
2017-12-24T01:06:48.309Z,10.15
2017-12-24T01:09:16.685Z,10.12
2017-12-24T01:11:45.018Z,10.09
2017-12-24T01:14:13.347Z,10.13
2017-12-24T01:16:41.713Z,10.13
2017-12-24T01:19:10.056Z,10.12
2017-12-24T01:21:39.916Z,10.10
2017-12-24T01:24:08.278Z,10.10
2017-12-24T01:26:36.636Z,10.10
2017-12-24T01:29:05.763Z,10.08
2017-12-24T01:31:34.103Z,10.12
2017-12-24T01:34:02.443Z,10.14
2017-12-24T01:36:30.808Z,10.15
2017-12-24T01:38:59.135Z,10.12
2017-12-24T01:41:27.465Z,10.13
2017-12-24T01:43:55.820Z,10.17
2017-12-24T01:46:24.148Z,10.18
2017-12-24T01:48:52.503Z,10.17
2017-12-24T01:51:20.847Z,10.17
2017-12-24T01:53:49.212Z,10.19
2017-12-24T01:56:18.317Z,10.14
2017-12-24T01:58:46.695Z,10.12
2017-12-24T02:01:15.832Z,10.07
2017-12-24T02:03:44.166Z,10.03
2017-12-24T02:06:12.496Z,10.08
2017-12-24T02:08:40.864Z,10.07
2017-12-24T02:11:09.201Z,10.05
2017-12-24T02:13:37.528Z,10.00
2017-12-24T02:16:05.901Z,10.01
2017-12-24T02:18:34.227Z,10.05
2017-12-24T02:21:03.330Z,10.03
2017-12-24T02:23:31.709Z,10.12
2017-12-24T02:26:00.080Z,10.03
2017-12-24T02:28:28.461Z,10.06
2017-12-24T02:30:56.796Z,10.04
2017-12-24T02:33:25.140Z,10.01
2017-12-24T02:35:53.492Z,10.03
2017-12-24T02:38:21.824Z,10.15
2017-12-24T02:40:50.168Z,10.14
2017-12-24T02:43:18.541Z,10.14
2017-12-24T02:45:46.880Z,10.18
2017-12-24T02:48:15.213Z,10.15
2017-12-24T02:50:43.572Z,10.10
2017-12-24T02:53:11.930Z,10.14
2017-12-24T02:55:40.281Z,10.17
2017-12-24T02:58:08.634Z,10.15
2017-12-24T03:00:36.964Z,10.25
2017-12-24T03:03:06.080Z,10.21
2017-12-24T03:05:34.408Z,10.23
2017-12-24T03:08:02.751Z,10.28
2017-12-24T03:10:31.113Z,10.23
2017-12-24T03:12:59.452Z,10.23
2017-12-24T03:15:28.552Z,10.26
2017-12-24T03:17:57.685Z,10.21
2017-12-24T03:20:26.013Z,10.21
2017-12-24T03:22:54.405Z,10.23
2017-12-24T03:25:23.519Z,10.17
2017-12-24T03:27:51.846Z,10.15
2017-12-24T03:30:20.195Z,10.15
2017-12-24T03:32:48.546Z,10.12
2017-12-24T03:35:17.669Z,10.15
2017-12-24T03:37:46.009Z,10.12
2017-12-24T03:40:15.126Z,10.21
2017-12-24T03:42:43.472Z,10.23
2017-12-24T03:45:12.676Z,10.20
2017-12-24T03:47:41.786Z,10.23
2017-12-24T03:50:10.890Z,10.25
2017-12-24T03:52:39.267Z,10.18
2017-12-24T03:55:07.606Z,10.20
2017-12-24T03:57:37.453Z,10.20
2017-12-24T04:00:05.817Z,10.23
2017-12-24T04:02:35.006Z,10.23
2017-12-24T04:05:04.106Z,10.24
2017-12-24T04:07:33.241Z,10.20
2017-12-24T04:10:01.576Z,10.22
2017-12-24T04:12:30.687Z,10.18
2017-12-24T04:14:59.803Z,10.21
2017-12-24T04:17:28.192Z,10.25
2017-12-24T04:19:56.539Z,10.25
2017-12-24T04:22:25.642Z,10.28
2017-12-24T04:24:54.005Z,10.22
2017-12-24T04:27:23.125Z,10.26
2017-12-24T04:29:51.453Z,10.27
2017-12-24T04:32:19.804Z,10.26
2017-12-24T04:34:48.126Z,10.25
2017-12-24T04:37:17.228Z,10.28
2017-12-24T04:39:46.372Z,10.27
2017-12-24T04:42:14.708Z,10.29
2017-12-24T04:44:43.832Z,10.29
2017-12-24T04:47:12.192Z,10.29
2017-12-24T04:49:40.524Z,10.30
2017-12-24T04:52:08.855Z,10.28
2017-12-24T04:54:37.213Z,10.25
2017-12-24T04:57:05.571Z,10.27
2017-12-24T04:59:34.707Z,10.23
2017-12-24T05:02:03.043Z,10.21
2017-12-24T05:04:32.146Z,10.20
2017-12-24T05:07:01.256Z,10.24
2017-12-24T05:09:30.384Z,10.26
2017-12-24T05:11:58.720Z,10.19
2017-12-24T05:14:27.811Z,10.22
2017-12-24T05:16:56.972Z,10.15
2017-12-24T05:19:25.322Z,10.17
2017-12-24T05:21:53.667Z,10.21
2017-12-24T05:24:22.816Z,10.25
2017-12-24T05:26:51.175Z,10.24
2017-12-24T05:29:19.499Z,10.26
2017-12-24T05:31:47.871Z,10.25
2017-12-24T05:34:16.244Z,10.21
2017-12-24T05:36:44.571Z,10.24
2017-12-24T05:39:12.928Z,10.23
2017-12-24T05:41:42.039Z,10.23
2017-12-24T05:44:10.369Z,10.24
2017-12-24T05:46:39.510Z,10.20
2017-12-24T05:49:07.860Z,10.17
2017-12-24T05:51:36.974Z,10.18
2017-12-24T05:54:06.079Z,10.16
2017-12-24T05:56:34.428Z,10.16
2017-12-24T05:59:02.780Z,10.19
2017-12-24T06:01:31.111Z,10.18
2017-12-24T06:03:59.455Z,10.17
2017-12-24T06:06:27.803Z,10.19
2017-12-24T06:08:56.165Z,10.17
2017-12-24T06:11:24.503Z,10.17
2017-12-24T06:13:53.665Z,10.16
2017-12-24T06:16:22.020Z,10.16
2017-12-24T06:18:50.368Z,10.14
2017-12-24T06:21:18.719Z,10.19
2017-12-24T06:23:47.084Z,10.17
2017-12-24T06:26:15.430Z,10.20
2017-12-24T06:28:43.860Z,10.19
2017-12-24T06:31:12.242Z,10.20
2017-12-24T06:33:40.594Z,10.22
2017-12-24T06:36:08.930Z,10.16
2017-12-24T06:38:37.333Z,10.25
2017-12-24T06:41:05.768Z,10.23
2017-12-24T06:43:34.101Z,10.23
2017-12-24T06:46:02.496Z,10.20
2017-12-24T06:48:30.836Z,10.16
2017-12-24T06:50:59.272Z,10.21
2017-12-24T06:53:28.460Z,10.21
2017-12-24T06:55:57.648Z,10.22
2017-12-24T06:58:25.984Z,10.16
2017-12-24T07:00:54.355Z,10.18
2017-12-24T07:03:22.729Z,10.21
2017-12-24T07:05:51.072Z,10.20
2017-12-24T07:08:20.177Z,10.22
2017-12-24T07:10:49.272Z,10.15
2017-12-24T07:13:17.627Z,10.17
2017-12-24T07:15:45.993Z,10.15
2017-12-24T07:18:14.336Z,10.15
2017-12-24T07:20:42.717Z,10.15
2017-12-24T07:23:11.060Z,10.15
2017-12-24T07:25:40.167Z,10.18
2017-12-24T07:28:08.503Z,10.15
2017-12-24T07:30:36.983Z,10.17
2017-12-24T07:33:05.327Z,10.22
2017-12-24T07:35:33.660Z,10.23
2017-12-24T07:38:02.785Z,10.22
2017-12-24T07:40:31.224Z,10.23
2017-12-24T07:42:59.597Z,10.24
2017-12-24T07:45:27.977Z,10.22
2017-12-24T07:47:56.321Z,10.21
2017-12-24T07:50:24.660Z,10.18
2017-12-24T07:52:53.805Z,10.21
2017-12-24T07:55:22.164Z,10.22
2017-12-24T07:57:50.515Z,10.20
2017-12-24T08:00:18.886Z,10.23
2017-12-24T08:02:48.081Z,10.18
2017-12-24T08:05:16.433Z,10.25
2017-12-24T08:07:44.788Z,10.21
2017-12-24T08:10:13.151Z,10.22
2017-12-24T08:12:41.483Z,10.18
2017-12-24T08:15:09.858Z,10.21
2017-12-24T08:17:38.978Z,10.20
2017-12-24T08:20:07.309Z,10.23
2017-12-24T08:22:35.680Z,10.21
2017-12-24T08:25:04.040Z,10.23
2017-12-24T08:27:32.456Z,10.31
2017-12-24T08:30:00.773Z,10.23
2017-12-24T08:32:29.112Z,10.28
2017-12-24T08:34:57.454Z,10.18
2017-12-24T08:37:25.826Z,10.21
2017-12-24T08:39:54.185Z,10.19
2017-12-24T08:42:22.515Z,10.17
2017-12-24T08:44:50.860Z,10.26
2017-12-24T08:47:19.225Z,10.24
2017-12-24T08:49:47.597Z,10.34
2017-12-24T08:52:15.944Z,10.30
2017-12-24T08:54:45.100Z,10.37
2017-12-24T08:57:13.449Z,10.52
2017-12-24T08:59:41.813Z,10.58
2017-12-24T09:02:10.136Z,10.72
2017-12-24T09:04:38.473Z,10.64
2017-12-24T09:07:06.815Z,10.70
2017-12-24T09:09:35.149Z,10.73
2017-12-24T09:12:03.536Z,10.80
2017-12-24T09:14:31.862Z,10.88
2017-12-24T09:17:00.976Z,10.78
2017-12-24T09:19:29.371Z,10.83
2017-12-24T09:21:57.757Z,10.76
2017-12-24T09:24:26.769Z,10.71
2017-12-24T09:26:55.637Z,10.80
2017-12-24T09:29:24.149Z,10.67
2017-12-24T09:31:52.569Z,10.62
2017-12-24T09:34:21.798Z,10.69
2017-12-24T09:36:50.155Z,10.59
2017-12-24T09:39:18.650Z,10.46
2017-12-24T09:41:46.988Z,10.42
2017-12-24T09:44:16.093Z,10.50
2017-12-24T09:46:45.224Z,10.41
2017-12-24T09:49:13.557Z,10.43
2017-12-24T09:51:41.903Z,10.50
2017-12-24T09:54:10.278Z,10.50
2017-12-24T09:56:38.617Z,10.59
2017-12-24T09:59:06.950Z,10.49
2017-12-24T10:01:35.313Z,10.55
2017-12-24T10:04:03.644Z,10.61
2017-12-24T10:06:31.975Z,10.59
2017-12-24T10:09:00.321Z,10.60
2017-12-24T10:11:28.671Z,10.50
2017-12-24T10:13:57.018Z,10.64
2017-12-24T10:16:25.381Z,10.57
2017-12-24T10:18:53.738Z,10.57
2017-12-24T10:21:22.088Z,10.61
2017-12-24T10:23:50.464Z,10.66
2017-12-24T10:26:18.811Z,10.67
2017-12-24T10:28:47.144Z,10.62
2017-12-24T10:31:15.532Z,10.73
2017-12-24T10:33:43.876Z,10.66
2017-12-24T10:36:12.205Z,10.73
2017-12-24T10:38:40.575Z,10.60
2017-12-24T10:41:08.889Z,10.63
2017-12-24T10:43:38.033Z,10.60
2017-12-24T10:46:06.388Z,10.65
2017-12-24T10:48:34.714Z,10.59
2017-12-24T10:51:03.119Z,10.68
2017-12-24T10:53:32.248Z,10.67
2017-12-24T10:56:00.575Z,10.70
2017-12-24T10:58:28.957Z,10.67
2017-12-24T11:00:57.328Z,10.69
2017-12-24T11:03:26.443Z,10.59
2017-12-24T11:05:55.540Z,10.73
2017-12-24T11:08:24.016Z,10.70
2017-12-24T11:10:53.107Z,10.76
2017-12-24T11:13:22.193Z,10.78
2017-12-24T11:15:51.329Z,10.82
2017-12-24T11:18:19.672Z,10.80
2017-12-24T11:20:47.992Z,10.83
2017-12-24T11:23:16.356Z,10.84
2017-12-24T11:25:44.681Z,10.83
2017-12-24T11:28:13.019Z,10.85
2017-12-24T11:30:41.370Z,10.85
2017-12-24T11:33:10.612Z,10.88
2017-12-24T11:35:38.945Z,10.80
2017-12-24T11:38:07.359Z,10.75
2017-12-24T11:40:35.683Z,10.65
2017-12-24T11:43:04.028Z,10.65
2017-12-24T11:45:32.390Z,10.70
2017-12-24T11:48:00.728Z,10.78
2017-12-24T11:50:29.833Z,10.79
2017-12-24T11:52:58.964Z,10.83
2017-12-24T11:55:27.328Z,10.75
2017-12-24T11:57:55.651Z,10.76
2017-12-24T12:00:24.006Z,10.70
2017-12-24T12:02:52.344Z,10.80
2017-12-24T12:05:20.668Z,10.77
2017-12-24T12:07:49.002Z,10.88
2017-12-24T12:10:17.317Z,10.89
2017-12-24T12:12:45.670Z,10.89
2017-12-24T12:15:14.044Z,10.78
2017-12-24T12:17:42.610Z,10.79
2017-12-24T12:20:10.948Z,10.86
2017-12-24T12:22:39.390Z,10.78
2017-12-24T12:25:07.719Z,10.83
2017-12-24T12:27:36.068Z,10.80
2017-12-24T12:30:04.451Z,10.74
2017-12-24T12:32:32.772Z,10.81
2017-12-24T12:35:01.193Z,10.83
2017-12-24T12:37:29.594Z,10.69
2017-12-24T12:39:57.933Z,10.85
2017-12-24T12:42:26.307Z,10.86
2017-12-24T12:44:54.632Z,10.81
2017-12-24T12:47:22.980Z,10.70
2017-12-24T12:49:51.430Z,10.71
2017-12-24T12:52:20.700Z,10.80
2017-12-24T12:54:49.096Z,10.69
2017-12-24T12:57:18.557Z,10.70
2017-12-24T12:59:46.888Z,10.62
2017-12-24T13:02:15.256Z,10.66
2017-12-24T13:04:44.364Z,10.64
2017-12-24T13:07:12.717Z,10.70
2017-12-24T13:09:41.158Z,10.64
2017-12-24T13:12:09.505Z,10.56
2017-12-24T13:14:37.890Z,10.51
2017-12-24T13:17:06.249Z,10.41
2017-12-24T13:19:35.384Z,10.46
2017-12-24T13:22:03.800Z,10.50
2017-12-24T13:24:32.103Z,10.61
2017-12-24T13:27:02.358Z,10.44
2017-12-24T13:29:30.696Z,10.42
2017-12-24T13:31:59.797Z,10.45
2017-12-24T13:34:28.149Z,10.41
2017-12-24T13:36:56.508Z,10.35
2017-12-24T13:39:24.843Z,10.35
2017-12-24T13:41:53.164Z,10.30
2017-12-24T13:44:21.712Z,10.24
2017-12-24T13:46:50.036Z,10.31
2017-12-24T13:49:18.365Z,10.48
2017-12-24T13:51:46.718Z,10.32
2017-12-24T13:54:15.805Z,10.42
2017-12-24T13:56:44.908Z,10.26
2017-12-24T13:59:14.029Z,10.23
2017-12-24T14:01:42.485Z,10.20
2017-12-24T14:04:10.867Z,10.24
2017-12-24T14:06:39.212Z,10.18
2017-12-24T14:09:07.542Z,10.30
2017-12-24T14:11:35.929Z,10.31
2017-12-24T14:14:04.268Z,10.21
2017-12-24T14:16:33.364Z,10.23
2017-12-24T14:19:02.511Z,10.14
2017-12-24T14:21:30.840Z,10.25
2017-12-24T14:23:59.948Z,10.14
2017-12-24T14:26:28.296Z,10.12
2017-12-24T14:28:57.400Z,10.29
2017-12-24T14:31:26.497Z,10.72
2017-12-24T14:33:55.630Z,10.53
2017-12-24T14:36:23.964Z,10.36
2017-12-24T14:38:53.047Z,10.25
2017-12-24T14:41:21.387Z,10.23
2017-12-24T14:43:49.728Z,10.17
2017-12-24T14:46:18.043Z,10.25
2017-12-24T14:48:47.183Z,10.10
2017-12-24T14:51:16.268Z,10.17
2017-12-24T14:53:44.605Z,10.11
2017-12-24T14:56:13.007Z,10.14
2017-12-24T14:58:41.339Z,10.18
2017-12-24T15:01:09.678Z,10.12
2017-12-24T15:03:38.822Z,10.14
2017-12-24T15:06:07.155Z,10.10
2017-12-24T15:08:35.518Z,10.12
2017-12-24T15:11:03.877Z,10.09
2017-12-24T15:13:32.196Z,10.10
2017-12-24T15:16:01.282Z,10.19
2017-12-24T15:18:29.634Z,10.18
2017-12-24T15:20:57.960Z,10.09
2017-12-24T15:23:27.051Z,10.05
2017-12-24T15:25:56.183Z,10.12
2017-12-24T15:28:24.512Z,10.08
2017-12-24T15:30:53.617Z,10.10
2017-12-24T15:33:22.732Z,10.11
2017-12-24T15:35:51.048Z,10.09
2017-12-24T15:38:19.384Z,10.13
2017-12-24T15:40:47.742Z,10.18
2017-12-24T15:43:16.831Z,10.11
2017-12-24T15:45:45.924Z,10.12
2017-12-24T15:48:15.052Z,10.14
2017-12-24T15:50:43.386Z,10.10
2017-12-24T15:53:12.576Z,10.11
2017-12-24T15:55:40.928Z,10.03
2017-12-24T15:58:09.264Z,10.06
2017-12-24T16:00:38.352Z,10.04
2017-12-24T16:03:07.480Z,10.13
2017-12-24T16:05:35.802Z,10.20
2017-12-24T16:08:04.900Z,10.17
2017-12-24T16:10:33.239Z,10.18
2017-12-24T16:13:01.557Z,10.14
2017-12-24T16:15:29.884Z,10.25
2017-12-24T16:17:58.228Z,10.15
2017-12-24T16:20:27.354Z,10.22
2017-12-24T16:22:55.680Z,10.17
2017-12-24T16:25:24.004Z,10.19
2017-12-24T16:27:52.357Z,10.22
2017-12-24T16:30:21.492Z,10.22
2017-12-24T16:32:49.810Z,10.19
2017-12-24T16:35:18.914Z,10.24
2017-12-24T16:37:48.070Z,10.23
2017-12-24T16:40:16.419Z,10.29
2017-12-24T16:42:44.757Z,10.25
2017-12-24T16:45:13.112Z,10.18
2017-12-24T16:47:41.448Z,10.29
2017-12-24T16:50:09.780Z,10.30
2017-12-24T16:52:38.129Z,10.29
2017-12-24T16:55:06.447Z,10.28
2017-12-24T16:57:34.792Z,10.27
2017-12-24T17:00:03.175Z,10.25
2017-12-24T17:02:31.530Z,10.30
2017-12-24T17:04:59.863Z,10.27
2017-12-24T17:07:28.975Z,10.32
2017-12-24T17:09:57.308Z,10.28
2017-12-24T17:12:25.647Z,10.23
2017-12-24T17:14:54.008Z,10.31
2017-12-24T17:17:22.353Z,10.28
2017-12-24T17:19:50.690Z,10.24
2017-12-24T17:22:19.166Z,10.26
2017-12-24T17:24:47.524Z,10.30
2017-12-24T17:27:15.850Z,10.31
2017-12-24T17:29:44.387Z,10.36
2017-12-24T17:32:12.713Z,10.35
2017-12-24T17:34:41.033Z,10.31
2017-12-24T17:37:09.366Z,10.39
2017-12-24T17:39:37.746Z,10.43
2017-12-24T17:42:06.083Z,10.38
2017-12-24T17:44:34.400Z,10.56
2017-12-24T17:47:02.736Z,10.44
2017-12-24T17:49:31.057Z,10.46
2017-12-24T17:51:59.436Z,10.39
2017-12-24T17:54:27.778Z,10.40
2017-12-24T17:56:56.104Z,10.38
2017-12-24T17:59:24.450Z,10.38
2017-12-24T18:01:52.776Z,10.45
2017-12-24T18:04:21.103Z,10.36
2017-12-24T18:06:49.457Z,10.36
2017-12-24T18:09:17.825Z,10.44
2017-12-24T18:11:46.177Z,10.58
2017-12-24T18:14:15.302Z,10.62
2017-12-24T18:16:43.651Z,10.56
2017-12-24T18:19:12.806Z,10.52
2017-12-24T18:21:41.123Z,10.49
2017-12-24T18:24:10.258Z,10.46
2017-12-24T18:26:38.622Z,10.56
2017-12-24T18:29:06.980Z,10.44
2017-12-24T18:31:36.112Z,10.42
2017-12-24T18:34:04.464Z,10.38
2017-12-24T18:36:33.601Z,10.40
2017-12-24T18:39:01.960Z,10.51
2017-12-24T18:41:30.321Z,10.42
2017-12-24T18:43:58.681Z,10.40
2017-12-24T18:46:27.780Z,10.41
2017-12-24T18:48:56.922Z,10.42
2017-12-24T18:51:26.033Z,10.47
2017-12-24T18:53:54.379Z,10.40
2017-12-24T18:56:22.830Z,10.32
2017-12-24T18:58:51.177Z,10.31
2017-12-24T19:01:21.071Z,10.36
2017-12-24T19:03:49.425Z,10.32
2017-12-24T19:06:17.757Z,10.48
2017-12-24T19:08:46.091Z,10.53
2017-12-24T19:11:14.469Z,10.59
2017-12-24T19:13:42.824Z,10.52
2017-12-24T19:16:11.147Z,10.54
2017-12-24T19:18:39.525Z,10.57
2017-12-24T19:21:07.894Z,10.73
2017-12-24T19:23:36.236Z,10.65
2017-12-24T19:26:04.604Z,10.71
2017-12-24T19:28:32.944Z,10.68
2017-12-24T19:31:01.272Z,10.71
2017-12-24T19:33:29.623Z,10.76
2017-12-24T19:35:58.775Z,10.75
2017-12-24T19:38:27.101Z,10.69
2017-12-24T19:40:56.260Z,10.68
2017-12-24T19:43:24.592Z,10.81
2017-12-24T19:45:52.940Z,10.78
2017-12-24T19:48:22.049Z,10.71
2017-12-24T19:50:51.165Z,10.74
2017-12-24T19:53:19.550Z,10.72
2017-12-24T19:55:47.884Z,10.63
2017-12-24T19:58:17.757Z,10.85
2017-12-24T20:00:46.116Z,10.81
2017-12-24T20:03:14.452Z,10.76
2017-12-24T20:05:43.562Z,10.71
2017-12-24T20:08:12.757Z,10.75
2017-12-24T20:10:41.862Z,10.83
2017-12-24T20:13:10.225Z,10.78
2017-12-24T20:15:39.333Z,10.79
2017-12-24T20:18:08.436Z,10.72
2017-12-24T20:20:36.804Z,10.67
2017-12-24T20:23:05.892Z,10.71
2017-12-24T20:25:35.018Z,10.67
2017-12-24T20:28:03.393Z,10.66
2017-12-24T20:30:31.768Z,10.74
2017-12-24T20:33:00.089Z,10.70
2017-12-24T20:35:28.432Z,10.69
2017-12-24T20:37:56.760Z,10.72
2017-12-24T20:40:25.143Z,10.68
2017-12-24T20:42:54.263Z,10.69
2017-12-24T20:45:22.613Z,10.66
2017-12-24T20:47:50.946Z,10.67
2017-12-24T20:50:19.336Z,10.69
2017-12-24T20:52:47.692Z,10.69
2017-12-24T20:55:16.020Z,10.64
2017-12-24T20:57:44.391Z,10.63
2017-12-24T21:00:12.731Z,10.67
2017-12-24T21:02:41.060Z,10.61
2017-12-24T21:05:09.430Z,10.57
2017-12-24T21:07:37.762Z,10.60
2017-12-24T21:10:06.092Z,10.58
2017-12-24T21:12:34.455Z,10.57
2017-12-24T21:15:02.786Z,10.55
2017-12-24T21:17:31.125Z,10.52
2017-12-24T21:20:00.246Z,10.58
2017-12-24T21:22:28.565Z,10.56
2017-12-24T21:24:56.907Z,10.50
2017-12-24T21:27:25.278Z,10.49
2017-12-24T21:29:53.653Z,10.47
2017-12-24T21:32:22.002Z,10.48
2017-12-24T21:34:50.357Z,10.46
2017-12-24T21:37:18.707Z,10.44
2017-12-24T21:39:47.046Z,10.38
2017-12-24T21:42:16.138Z,10.41
2017-12-24T21:44:45.286Z,10.43
2017-12-24T21:47:13.622Z,10.40
2017-12-24T21:49:42.719Z,10.39
2017-12-24T21:52:11.083Z,10.37
2017-12-24T21:54:40.178Z,10.37
2017-12-24T21:57:09.284Z,10.29
2017-12-24T21:59:38.457Z,10.25
2017-12-24T22:02:06.788Z,10.26
2017-12-24T22:04:35.127Z,10.26
2017-12-24T22:07:04.298Z,10.26
2017-12-24T22:09:32.659Z,10.23
2017-12-24T22:12:01.013Z,10.24
2017-12-24T22:14:29.345Z,10.22
2017-12-24T22:16:57.670Z,10.28
2017-12-24T22:19:26.009Z,10.24
2017-12-24T22:21:55.104Z,10.21
2017-12-24T22:24:24.256Z,10.16
2017-12-24T22:26:52.584Z,10.14
2017-12-24T22:29:21.694Z,10.06
2017-12-24T22:31:50.042Z,10.02
2017-12-24T22:34:18.382Z,10.04
2017-12-24T22:36:46.724Z,10.04
2017-12-24T22:39:15.079Z,10.06
2017-12-24T22:41:44.183Z,10.04
2017-12-24T22:44:13.281Z,10.02
2017-12-24T22:46:41.658Z,9.99
2017-12-24T22:49:10.766Z,10.00
2017-12-24T22:51:39.110Z,9.98
2017-12-24T22:54:07.448Z,10.03
2017-12-24T22:56:35.756Z,9.96
2017-12-24T22:59:04.089Z,10.01
2017-12-24T23:01:32.425Z,10.06
2017-12-24T23:04:00.768Z,10.06
2017-12-24T23:06:29.108Z,10.04
2017-12-24T23:11:31.898Z,10.04
2017-12-24T23:14:01.011Z,10.07
2017-12-24T23:16:29.334Z,10.04
2017-12-24T23:18:57.668Z,10.16
2017-12-24T23:21:26.029Z,10.14
2017-12-24T23:23:54.381Z,10.16
2017-12-24T23:26:23.484Z,10.15
2017-12-24T23:28:52.608Z,10.18
2017-12-24T23:31:21.184Z,10.18
2017-12-24T23:33:49.548Z,10.18
2017-12-24T23:36:17.958Z,10.17
2017-12-24T23:38:46.292Z,10.17
2017-12-24T23:41:15.386Z,10.16
2017-12-24T23:43:43.742Z,10.15
2017-12-24T23:46:12.087Z,10.12
2017-12-24T23:48:40.412Z,10.17
2017-12-24T23:51:08.764Z,10.08
2017-12-24T23:53:37.108Z,10.09
2017-12-24T23:56:05.450Z,10.12
2017-12-24T23:58:34.568Z,10.10
